createdAt,value
2018-03-20T00:01:17.857Z,100002.98
2018-03-20T00:03:46.377Z,100001.99
2018-03-20T00:06:14.041Z,100005.02
2018-03-20T00:08:41.748Z,100007.06
2018-03-20T00:11:09.406Z,100007.86
2018-03-20T00:13:37.076Z,100009.67
2018-03-20T00:16:04.822Z,100000.76
2018-03-20T00:18:32.557Z,100010.10
2018-03-20T00:21:00.267Z,100003.64
2018-03-20T00:23:28.044Z,100004.16
2018-03-20T00:25:55.806Z,99999.92
2018-03-20T00:28:23.677Z,100004.32
2018-03-20T00:30:51.514Z,100007.73
2018-03-20T00:33:19.275Z,100007.11
2018-03-20T00:35:47.150Z,100006.20
2018-03-20T00:38:14.856Z,100009.54
2018-03-20T00:40:42.456Z,100012.69
2018-03-20T00:43:11.654Z,100007.31
2018-03-20T00:45:39.333Z,100020.08
2018-03-20T00:48:07.058Z,100017.61
2018-03-20T00:50:35.192Z,100016.85
2018-03-20T00:53:02.885Z,100021.97
2018-03-20T00:55:30.694Z,100024.69
2018-03-20T00:57:58.465Z,100018.20
2018-03-20T01:00:26.266Z,100022.55
2018-03-20T01:02:53.917Z,100023.01
2018-03-20T01:05:22.016Z,100014.89
2018-03-20T01:07:49.663Z,100022.44
2018-03-20T01:10:17.452Z,100018.20
2018-03-20T01:12:45.128Z,100023.25
2018-03-20T01:15:12.923Z,100023.19
2018-03-20T01:17:40.676Z,100020.91
2018-03-20T01:20:08.380Z,100020.48
2018-03-20T01:22:35.967Z,100016.63
2018-03-20T01:25:04.105Z,100020.95
2018-03-20T01:27:31.829Z,100016.82
2018-03-20T01:29:59.526Z,100019.77
2018-03-20T01:32:27.631Z,100014.36
2018-03-20T01:34:55.368Z,100006.45
2018-03-20T01:37:23.049Z,100010.02
2018-03-20T01:39:50.806Z,100008.86
2018-03-20T01:42:18.541Z,100011.13
2018-03-20T01:44:46.264Z,100010.05
2018-03-20T01:47:14.081Z,100005.77
2018-03-20T01:49:41.813Z,99995.95
2018-03-20T01:52:09.446Z,99995.95
2018-03-20T01:54:37.906Z,99996.74
2018-03-20T01:57:05.816Z,99999.73
2018-03-20T01:59:33.506Z,99997.20
2018-03-20T02:02:01.164Z,100005.34
2018-03-20T02:04:28.860Z,99996.14
2018-03-20T02:06:57.347Z,100005.83
2018-03-20T02:09:24.981Z,100001.44
2018-03-20T02:11:52.600Z,100001.56
2018-03-20T02:14:20.274Z,99996.34
2018-03-20T02:16:48.454Z,99996.45
2018-03-20T02:19:16.167Z,100002.72
2018-03-20T02:21:43.863Z,100006.78
2018-03-20T02:24:11.574Z,100007.62
2018-03-20T02:26:39.314Z,100006.31
2018-03-20T02:29:07.900Z,100011.59
2018-03-20T02:31:35.594Z,100017.31
2018-03-20T02:34:03.611Z,100018.04
2018-03-20T02:36:31.359Z,100014.78
2018-03-20T02:38:59.021Z,100007.11
2018-03-20T02:41:27.574Z,100015.38
2018-03-20T02:43:55.144Z,100017.99
2018-03-20T02:46:22.822Z,100017.33
2018-03-20T02:48:50.482Z,100015.38
2018-03-20T02:51:18.152Z,100017.30
2018-03-20T02:53:45.773Z,100021.73
2018-03-20T02:56:14.748Z,100020.80
2018-03-20T02:58:42.937Z,100029.75
2018-03-20T03:01:10.675Z,100031.52
2018-03-20T03:03:38.292Z,100029.41
2018-03-20T03:06:07.873Z,100033.81
2018-03-20T03:08:36.843Z,100032.63
2018-03-20T03:11:04.562Z,100039.52
2018-03-20T03:13:32.214Z,100034.39
2018-03-20T03:15:59.914Z,100040.09
2018-03-20T03:18:27.541Z,100044.50
2018-03-20T03:20:55.204Z,100043.70
2018-03-20T03:23:22.934Z,100041.59
2018-03-20T03:25:50.663Z,100046.80
2018-03-20T03:28:18.274Z,100054.33
2018-03-20T03:30:45.949Z,100065.63
2018-03-20T03:33:14.512Z,100064.78
2018-03-20T03:35:42.220Z,100065.86
2018-03-20T03:38:09.887Z,100065.70
2018-03-20T03:40:37.929Z,100065.88
2018-03-20T03:43:06.056Z,100064.56
2018-03-20T03:45:34.474Z,100061.27
2018-03-20T03:48:02.157Z,100068.28
2018-03-20T03:50:29.964Z,100070.05
2018-03-20T03:52:59.378Z,100069.64
2018-03-20T03:55:27.056Z,100071.33
2018-03-20T03:57:55.631Z,100071.20
2018-03-20T04:00:24.253Z,100071.61
2018-03-20T04:02:51.956Z,100078.65
2018-03-20T04:05:19.591Z,100079.62
2018-03-20T04:07:47.359Z,100082.09
2018-03-20T04:10:15.165Z,100086.69
2018-03-20T04:12:42.849Z,100085.06
2018-03-20T04:15:10.504Z,100090.16
2018-03-20T04:17:38.300Z,100089.84
2018-03-20T04:20:06.329Z,100086.03
2018-03-20T04:22:33.920Z,100087.63
2018-03-20T04:25:01.353Z,100088.34
2018-03-20T04:27:28.880Z,100085.00
2018-03-20T04:29:56.292Z,100090.07
2018-03-20T04:32:23.758Z,100085.86
2018-03-20T04:34:51.287Z,100092.67
2018-03-20T04:37:18.678Z,100091.63
2018-03-20T04:39:46.068Z,100089.50
2018-03-20T04:42:13.721Z,100087.61
2018-03-20T04:44:41.127Z,100093.57
2018-03-20T04:47:08.559Z,100100.72
2018-03-20T04:49:36.086Z,100095.58
2018-03-20T04:52:03.478Z,100094.88
2018-03-20T04:54:30.872Z,100101.77
2018-03-20T04:56:58.283Z,100104.39
2018-03-20T04:59:25.669Z,100107.38
2018-03-20T05:01:53.067Z,100116.42
2018-03-20T05:04:20.534Z,100111.02
2018-03-20T05:06:48.134Z,100111.45
2018-03-20T05:09:15.537Z,100108.80
2018-03-20T05:11:42.935Z,100113.44
2018-03-20T05:14:10.360Z,100114.04
2018-03-20T05:16:37.751Z,100120.00
2018-03-20T05:19:10.626Z,100119.13
2018-03-20T05:21:54.447Z,100120.19
2018-03-20T05:24:21.845Z,100128.41
2018-03-20T05:26:49.710Z,100129.84
2018-03-20T05:29:17.319Z,100128.08
2018-03-20T05:31:45.321Z,100129.97
2018-03-20T05:34:12.726Z,100132.00
2018-03-20T05:36:40.138Z,100135.24
2018-03-20T05:39:07.555Z,100139.58
2018-03-20T05:41:34.955Z,100135.98
2018-03-20T05:44:02.348Z,100138.87
2018-03-20T05:59:54.326Z,100136.14
2018-03-20T06:02:21.778Z,100138.95
2018-03-20T06:04:49.329Z,100136.13
2018-03-20T06:07:16.728Z,100138.23
2018-03-20T06:09:44.136Z,100141.62
2018-03-20T06:12:11.543Z,100147.81
2018-03-20T06:14:38.942Z,100146.09
2018-03-20T06:17:06.830Z,100149.43
2018-03-20T06:19:34.266Z,100161.03
2018-03-20T06:22:01.694Z,100157.25
2018-03-20T06:24:29.188Z,100160.27
2018-03-20T06:26:56.576Z,100161.42
2018-03-20T06:29:24.015Z,100160.69
2018-03-20T06:31:51.666Z,100159.58
2018-03-20T06:34:19.079Z,100158.44
2018-03-20T06:36:46.472Z,100163.89
2018-03-20T06:39:15.961Z,100159.05
2018-03-20T06:41:43.361Z,100174.27
2018-03-20T06:44:10.771Z,100169.47
2018-03-20T06:46:39.358Z,100166.82
2018-03-20T06:49:06.910Z,100175.83
2018-03-20T06:51:34.289Z,100178.91
2018-03-20T06:54:01.696Z,100179.83
2018-03-20T06:56:29.151Z,100171.52
2018-03-20T06:58:56.559Z,100179.28
2018-03-20T07:01:23.989Z,100182.25
2018-03-20T07:03:51.471Z,100182.73
2018-03-20T07:06:18.870Z,100190.05
2018-03-20T07:08:46.331Z,100194.34
2018-03-20T07:11:13.733Z,100185.84
2018-03-20T07:13:41.134Z,100179.92
2018-03-20T07:16:08.515Z,100176.55
2018-03-20T07:18:35.893Z,100171.81
2018-03-20T07:21:03.288Z,100175.45
2018-03-20T07:23:30.693Z,100161.14
2018-03-20T07:25:58.099Z,100162.95
2018-03-20T07:28:25.549Z,100165.25
2018-03-20T07:30:52.874Z,100183.73
2018-03-20T07:33:20.301Z,100192.84
2018-03-20T07:35:47.689Z,100186.34
2018-03-20T07:38:15.085Z,100188.16
2018-03-20T07:40:42.466Z,100193.75
2018-03-20T07:43:09.974Z,100197.30
2018-03-20T07:45:37.375Z,100198.27
2018-03-20T07:48:04.785Z,100194.00
2018-03-20T07:50:32.209Z,100193.91
2018-03-20T07:53:00.619Z,100204.52
2018-03-20T07:55:28.077Z,100199.72
2018-03-20T07:57:55.458Z,100202.19
2018-03-20T08:00:22.856Z,100204.96
2018-03-20T08:02:50.259Z,100197.58
2018-03-20T08:05:17.679Z,100195.39
2018-03-20T08:07:45.066Z,100196.13
2018-03-20T08:10:12.536Z,100198.19
2018-03-20T08:12:39.937Z,100198.77
2018-03-20T08:15:07.413Z,100199.15
2018-03-20T08:17:35.706Z,100186.48
2018-03-20T08:20:03.104Z,100183.23
2018-03-20T08:22:30.536Z,100186.86
2018-03-20T08:24:57.933Z,100188.42
2018-03-20T08:27:25.324Z,100185.56
2018-03-20T08:29:52.730Z,100195.75
2018-03-20T08:32:20.267Z,100207.19
2018-03-20T08:34:47.652Z,100209.19
2018-03-20T08:37:15.459Z,100209.30
2018-03-20T08:39:43.379Z,100216.91
2018-03-20T08:42:10.784Z,100218.70
2018-03-20T08:44:38.630Z,100219.87
2018-03-20T08:47:06.030Z,100220.58
2018-03-20T08:49:33.418Z,100231.25
2018-03-20T08:52:00.853Z,100237.53
2018-03-20T08:54:28.235Z,100246.58
2018-03-20T08:56:55.781Z,100249.04
2018-03-20T08:59:23.176Z,100245.50
2018-03-20T09:01:51.078Z,100245.75
2018-03-20T09:04:18.430Z,100243.11
2018-03-20T09:06:45.927Z,100243.63
2018-03-20T09:09:13.361Z,100261.47
2018-03-20T09:11:40.764Z,100257.67
2018-03-20T09:14:08.164Z,100266.14
2018-03-20T09:16:35.670Z,100262.03
2018-03-20T09:19:03.072Z,100266.39
2018-03-20T09:21:30.590Z,100260.67
2018-03-20T09:23:57.976Z,100267.90
2018-03-20T09:26:25.397Z,100269.08
2018-03-20T09:28:52.844Z,100264.49
2018-03-20T09:31:20.229Z,100265.25
2018-03-20T09:33:47.779Z,100270.27
2018-03-20T09:36:15.189Z,100266.90
2018-03-20T09:38:42.579Z,100267.13
2018-03-20T09:41:09.966Z,100271.62
2018-03-20T09:43:37.862Z,100270.00
2018-03-20T09:46:05.356Z,100270.27
2018-03-20T09:48:32.748Z,100273.03
2018-03-20T09:51:02.102Z,100270.02
2018-03-20T09:53:29.503Z,100276.03
2018-03-20T09:55:57.527Z,100275.86
2018-03-20T09:58:24.925Z,100266.90
2018-03-20T10:00:52.409Z,100255.02
2018-03-20T10:03:19.902Z,100256.89
2018-03-20T10:05:48.199Z,100268.61
2018-03-20T10:08:15.601Z,100271.05
2018-03-20T10:10:43.077Z,100263.38
2018-03-20T10:13:10.559Z,100262.50
2018-03-20T10:15:38.045Z,100265.83
2018-03-20T10:18:05.470Z,100265.50
2018-03-20T10:20:32.922Z,100277.13
2018-03-20T10:23:00.385Z,100289.14
2018-03-20T10:25:27.835Z,100285.73
2018-03-20T10:27:55.289Z,100296.08
2018-03-20T10:30:22.742Z,100286.38
2018-03-20T10:32:50.263Z,100286.91
2018-03-20T10:35:17.644Z,100289.63
2018-03-20T10:37:45.119Z,100298.80
2018-03-20T10:40:12.502Z,100295.73
2018-03-20T10:42:39.930Z,100294.06
2018-03-20T10:45:08.246Z,100295.68
2018-03-20T10:47:35.630Z,100298.55
2018-03-20T10:50:03.021Z,100298.81
2018-03-20T10:52:31.441Z,100307.94
2018-03-20T10:54:58.839Z,100299.84
2018-03-20T10:57:26.420Z,100298.41
2018-03-20T10:59:53.914Z,100304.84
2018-03-20T11:02:21.314Z,100305.84
2018-03-20T11:04:48.733Z,100312.31
2018-03-20T11:07:16.248Z,100306.62
2018-03-20T11:09:45.663Z,100308.42
2018-03-20T11:12:13.066Z,100303.18
2018-03-20T11:14:40.470Z,100306.39
2018-03-20T11:17:08.317Z,100311.00
2018-03-20T11:19:35.742Z,100316.09
2018-03-20T11:22:03.400Z,100315.63
2018-03-20T11:24:32.016Z,100314.49
2018-03-20T11:26:59.494Z,100306.98
2018-03-20T11:29:26.953Z,100314.77
2018-03-20T11:31:54.365Z,100315.00
2018-03-20T11:34:21.763Z,100314.28
2018-03-20T11:36:49.394Z,100320.44
2018-03-20T11:39:17.098Z,100320.95
2018-03-20T11:41:44.508Z,100319.67
2018-03-20T11:44:11.876Z,100325.01
2018-03-20T11:46:39.361Z,100318.02
2018-03-20T11:49:06.762Z,100320.23
2018-03-20T11:51:34.206Z,100325.31
2018-03-20T11:54:01.680Z,100322.36
2018-03-20T11:56:29.089Z,100319.52
2018-03-20T11:58:56.484Z,100317.76
2018-03-20T12:01:23.879Z,100327.31
2018-03-20T12:03:51.471Z,100323.20
2018-03-20T12:06:18.872Z,100326.11
2018-03-20T12:08:50.033Z,100319.52
2018-03-20T12:11:17.413Z,100319.34
2018-03-20T12:13:44.877Z,100324.91
2018-03-20T12:16:12.445Z,100318.58
2018-03-20T12:18:40.016Z,100312.13
2018-03-20T12:21:07.721Z,100313.14
2018-03-20T12:23:35.106Z,100311.52
2018-03-20T12:26:02.506Z,100324.28
2018-03-20T12:28:29.901Z,100311.30
2018-03-20T12:30:57.445Z,100318.85
2018-03-20T12:33:24.826Z,100323.55
2018-03-20T12:35:52.279Z,100318.44
2018-03-20T12:38:19.711Z,100314.34
2018-03-20T12:40:47.140Z,100320.88
2018-03-20T12:43:14.722Z,100307.70
2018-03-20T12:45:42.206Z,100322.36
2018-03-20T12:48:09.718Z,100322.88
2018-03-20T12:50:37.175Z,100322.15
2018-03-20T12:53:04.580Z,100330.12
2018-03-20T12:55:31.991Z,100326.66
2018-03-20T12:57:59.424Z,100337.28
2018-03-20T13:00:27.742Z,100343.52
2018-03-20T13:02:55.173Z,100351.64
2018-03-20T13:05:22.640Z,100345.73
2018-03-20T13:07:50.078Z,100351.52
2018-03-20T13:10:17.576Z,100358.23
2018-03-20T13:12:44.984Z,100358.33
2018-03-20T13:15:12.604Z,100361.69
2018-03-20T13:17:40.099Z,100370.97
2018-03-20T13:20:07.462Z,100375.02
2018-03-20T13:22:34.854Z,100379.13
2018-03-20T13:25:02.261Z,100371.16
2018-03-20T13:27:29.683Z,100377.72
2018-03-20T13:29:57.087Z,100383.94
2018-03-20T13:32:24.613Z,100382.12
2018-03-20T13:34:52.101Z,100396.18
2018-03-20T13:37:19.505Z,100396.44
2018-03-20T13:39:52.754Z,100403.81
2018-03-20T13:42:27.904Z,100407.49
2018-03-20T13:44:55.533Z,100414.07
2018-03-20T13:47:22.949Z,100434.22
2018-03-20T13:49:50.348Z,100439.47
2018-03-20T13:52:17.782Z,100443.72
2018-03-20T13:54:45.266Z,100442.20
2018-03-20T13:57:12.645Z,100441.47
2018-03-20T13:59:40.066Z,100452.30
2018-03-20T14:02:07.480Z,100452.47
2018-03-20T14:04:34.893Z,100455.13
2018-03-20T14:07:02.436Z,100464.39
2018-03-20T14:09:29.929Z,100470.58
2018-03-20T14:11:57.342Z,100462.02
2018-03-20T14:14:24.874Z,100453.56
2018-03-20T14:16:52.294Z,100462.91
2018-03-20T14:19:19.744Z,100459.43
2018-03-20T14:21:47.126Z,100461.94
2018-03-20T14:24:14.605Z,100461.05
2018-03-20T14:26:42.065Z,100474.02
2018-03-20T14:29:09.687Z,100482.95
2018-03-20T14:31:38.128Z,100488.64
2018-03-20T14:34:05.585Z,100485.27
2018-03-20T14:36:33.062Z,100487.17
2018-03-20T14:39:00.500Z,100493.00
2018-03-20T14:41:27.907Z,100492.50
2018-03-20T14:43:55.312Z,100495.81
2018-03-20T14:46:22.693Z,100504.87
2018-03-20T14:48:50.069Z,100504.28
2018-03-20T14:51:17.489Z,100506.16
2018-03-20T14:53:44.882Z,100496.72
2018-03-20T14:56:12.318Z,100512.59
2018-03-20T14:58:39.695Z,100508.36
2018-03-20T15:01:07.209Z,100507.81
2018-03-20T15:03:34.653Z,100508.34
2018-03-20T15:06:02.207Z,100511.51
2018-03-20T15:08:29.836Z,100519.13
2018-03-20T15:10:57.216Z,100520.36
2018-03-20T15:13:24.704Z,100527.18
2018-03-20T15:15:52.489Z,100529.69
2018-03-20T15:18:20.112Z,100522.61
2018-03-20T15:20:47.498Z,100538.25
2018-03-20T15:23:14.944Z,100536.39
2018-03-20T15:25:42.339Z,100540.34
2018-03-20T15:28:09.743Z,100543.67
2018-03-20T15:30:37.606Z,100550.17
2018-03-20T15:33:05.011Z,100548.47
2018-03-20T15:35:32.493Z,100555.55
2018-03-20T15:37:59.979Z,100555.95
2018-03-20T15:40:27.389Z,100555.23
2018-03-20T15:42:54.901Z,100559.29
2018-03-20T15:45:22.414Z,100557.12
2018-03-20T15:47:49.824Z,100563.30
2018-03-20T15:50:17.289Z,100565.48
2018-03-20T15:52:44.777Z,100572.28
2018-03-20T15:55:12.264Z,100573.70
2018-03-20T15:57:39.738Z,100575.13
2018-03-20T16:00:07.236Z,100577.19
2018-03-20T16:02:34.646Z,100587.55
2018-03-20T16:05:02.126Z,100589.00
2018-03-20T16:07:29.552Z,100594.59
2018-03-20T16:09:56.992Z,100595.80
2018-03-20T16:12:24.385Z,100601.47
2018-03-20T16:14:51.985Z,100597.57
2018-03-20T16:17:19.380Z,100610.64
2018-03-20T16:19:46.799Z,100614.30
2018-03-20T16:22:14.177Z,100614.04
2018-03-20T16:24:41.659Z,100623.16
2018-03-20T16:27:09.049Z,100620.66
2018-03-20T16:29:36.497Z,100635.36
2018-03-20T16:32:03.938Z,100636.17
2018-03-20T16:34:31.441Z,100641.27
2018-03-20T16:36:58.912Z,100645.53
2018-03-20T16:39:26.315Z,100645.80
2018-03-20T16:41:53.823Z,100648.81
2018-03-20T16:44:21.276Z,100650.48
2018-03-20T16:46:48.665Z,100662.78
2018-03-20T16:49:16.175Z,100668.27
2018-03-20T16:51:43.585Z,100670.75
2018-03-20T16:54:11.129Z,100673.59
2018-03-20T16:56:38.557Z,100679.16
2018-03-20T16:59:05.966Z,100683.79
2018-03-20T17:01:34.378Z,100687.51
2018-03-20T17:04:03.323Z,100686.41
2018-03-20T17:06:30.805Z,100689.88
2018-03-20T17:08:59.027Z,100696.86
2018-03-20T17:11:26.665Z,100693.94
2018-03-20T17:13:54.220Z,100713.50
2018-03-20T17:16:21.730Z,100711.09
2018-03-20T17:18:49.217Z,100709.90
2018-03-20T17:21:16.632Z,100719.43
2018-03-20T17:23:44.059Z,100723.56
2018-03-20T17:26:11.710Z,100724.41
2018-03-20T17:28:40.228Z,100729.85
2018-03-20T17:31:07.661Z,100734.63
2018-03-20T17:33:35.011Z,100731.75
2018-03-20T17:36:02.455Z,100736.56
2018-03-20T17:38:29.897Z,100739.95
2018-03-20T17:40:57.271Z,100743.91
2018-03-20T17:43:24.686Z,100740.28
2018-03-20T17:45:52.116Z,100752.37
2018-03-20T17:48:19.535Z,100763.03
2018-03-20T17:50:47.011Z,100764.58
2018-03-20T17:53:14.411Z,100774.21
2018-03-20T17:55:41.997Z,100777.38
2018-03-20T17:58:10.771Z,100782.98
2018-03-20T18:00:38.186Z,100787.14
2018-03-20T18:03:05.599Z,100793.69
2018-03-20T18:05:33.245Z,100791.35
2018-03-20T18:08:00.645Z,100795.80
2018-03-20T18:10:28.195Z,100800.28
2018-03-20T18:12:55.976Z,100804.50
2018-03-20T18:15:23.375Z,100803.48
2018-03-20T18:17:50.767Z,100808.81
2018-03-20T18:20:18.798Z,100818.30
2018-03-20T18:22:46.204Z,100817.99
2018-03-20T18:25:13.631Z,100827.67
2018-03-20T18:27:41.339Z,100831.69
2018-03-20T18:30:08.850Z,100838.11
2018-03-20T18:32:36.289Z,100852.23
2018-03-20T18:35:03.695Z,100848.47
2018-03-20T18:37:31.090Z,100857.06
2018-03-20T18:39:58.545Z,100854.95
2018-03-20T18:42:25.944Z,100866.34
2018-03-20T18:44:53.328Z,100863.52
2018-03-20T18:47:21.424Z,100860.49
2018-03-20T18:49:48.954Z,100867.67
2018-03-20T18:52:16.370Z,100864.08
2018-03-20T18:54:43.854Z,100869.06
2018-03-20T18:57:11.447Z,100875.69
2018-03-20T18:59:40.877Z,100878.05
2018-03-20T19:02:08.538Z,100882.29
2018-03-20T19:04:36.612Z,100884.09
2018-03-20T19:07:04.338Z,100888.91
2018-03-20T19:09:34.621Z,100886.46
2018-03-20T19:12:06.793Z,100893.95
2018-03-20T19:14:35.029Z,100900.39
2018-03-20T19:17:02.508Z,100904.02
2018-03-20T19:19:30.103Z,100908.10
2018-03-20T19:21:57.567Z,100909.16
2018-03-20T19:24:24.974Z,100913.11
2018-03-20T19:26:52.985Z,100916.36
2018-03-20T19:29:20.400Z,100920.81
2018-03-20T19:31:47.835Z,100926.55
2018-03-20T19:34:15.479Z,100932.84
2018-03-20T19:36:42.959Z,100930.88
2018-03-20T19:39:10.716Z,100941.95
2018-03-20T19:41:39.335Z,100938.20
2018-03-20T19:44:07.309Z,100937.78
2018-03-20T19:46:34.788Z,100946.33
2018-03-20T19:49:02.350Z,100952.81
2018-03-20T19:51:29.961Z,100942.44
2018-03-20T19:53:57.485Z,100948.84
2018-03-20T19:56:25.827Z,100954.92
2018-03-20T19:58:53.340Z,100961.29
2018-03-20T20:01:21.118Z,100961.08
2018-03-20T20:03:48.575Z,100963.39
2018-03-20T20:06:16.040Z,100974.03
2018-03-20T20:08:43.620Z,100969.86
2018-03-20T20:11:11.166Z,100972.13
2018-03-20T20:13:38.587Z,100981.66
2018-03-20T20:16:05.979Z,100980.31
2018-03-20T20:18:33.433Z,100991.06
2018-03-20T20:21:00.836Z,100990.13
2018-03-20T20:23:29.082Z,101000.34
2018-03-20T20:25:56.836Z,100997.19
2018-03-20T20:28:24.250Z,100999.02
2018-03-20T20:30:51.671Z,101007.66
2018-03-20T20:33:20.477Z,101008.39
2018-03-20T20:35:47.882Z,101010.72
2018-03-20T20:38:15.287Z,101019.39
2018-03-20T20:40:42.692Z,101016.37
2018-03-20T20:43:10.870Z,101017.86
2018-03-20T20:45:38.331Z,101027.31
2018-03-20T20:48:05.754Z,101028.48
2018-03-20T20:50:33.266Z,101038.16
2018-03-20T20:53:00.665Z,101033.30
2018-03-20T20:55:28.069Z,101041.70
2018-03-20T20:57:55.602Z,101040.55
2018-03-20T21:00:23.119Z,101043.05
2018-03-20T21:02:50.572Z,101045.69
2018-03-20T21:05:18.021Z,101050.03
2018-03-20T21:07:45.453Z,101045.42
2018-03-20T21:10:12.915Z,101054.20
2018-03-20T21:12:40.971Z,101055.42
2018-03-20T21:15:08.576Z,101054.58
2018-03-20T21:17:36.122Z,101053.86
2018-03-20T21:20:04.596Z,101060.89
2018-03-20T21:22:32.062Z,101057.18
2018-03-20T21:24:59.516Z,101057.30
2018-03-20T21:27:26.961Z,101055.03
2018-03-20T21:29:54.347Z,101065.17
2018-03-20T21:32:21.764Z,101066.45
2018-03-20T21:34:49.182Z,101062.64
2018-03-20T21:37:16.576Z,101066.30
2018-03-20T21:39:44.002Z,101067.28
2018-03-20T21:42:11.424Z,101076.12
2018-03-20T21:44:39.817Z,101079.64
2018-03-20T21:47:08.289Z,101073.84
2018-03-20T21:49:35.780Z,101075.78
2018-03-20T21:52:03.173Z,101077.97
2018-03-20T21:54:30.586Z,101079.45
2018-03-20T21:56:57.980Z,101074.16
2018-03-20T21:59:25.390Z,101071.59
2018-03-20T22:01:52.814Z,101074.52
2018-03-20T22:04:21.315Z,101073.73
2018-03-20T22:06:48.713Z,101081.12
2018-03-20T22:09:16.108Z,101078.58
2018-03-20T22:11:43.563Z,101082.91
2018-03-20T22:14:11.311Z,101093.95
2018-03-20T22:16:38.822Z,101096.09
2018-03-20T22:19:06.263Z,101089.11
2018-03-20T22:21:33.765Z,101101.08
2018-03-20T22:24:01.165Z,101101.56
2018-03-20T22:26:28.582Z,101109.02
2018-03-20T22:28:55.984Z,101111.67
2018-03-20T22:31:23.400Z,101110.56
2018-03-20T22:33:50.798Z,101113.33
2018-03-20T22:36:18.301Z,101119.66
2018-03-20T22:38:45.676Z,101117.78
2018-03-20T22:41:13.105Z,101122.72
2018-03-20T22:43:41.330Z,101124.50
2018-03-20T22:46:08.844Z,101129.87
2018-03-20T22:48:36.430Z,101132.84
2018-03-20T22:51:03.852Z,101134.34
2018-03-20T22:53:31.314Z,101134.45
2018-03-20T22:55:58.740Z,101130.77
2018-03-20T22:58:26.166Z,101145.50
2018-03-20T23:00:53.608Z,101143.64
2018-03-20T23:03:21.054Z,101146.64
2018-03-20T23:05:48.466Z,101144.58
2018-03-20T23:08:17.035Z,101144.56
2018-03-20T23:10:44.457Z,101155.84
2018-03-20T23:13:11.847Z,101152.22
2018-03-20T23:15:39.266Z,101150.91
2018-03-20T23:18:06.665Z,101158.26
2018-03-20T23:20:34.100Z,101155.66
2018-03-20T23:23:01.507Z,101161.20
2018-03-20T23:25:28.908Z,101161.38
2018-03-20T23:27:56.367Z,101160.16
2018-03-20T23:30:23.843Z,101163.21
2018-03-20T23:32:51.292Z,101162.42
2018-03-20T23:35:18.725Z,101162.97
2018-03-20T23:37:46.144Z,101167.09
2018-03-20T23:40:13.688Z,101160.94
2018-03-20T23:42:41.693Z,101167.34
2018-03-20T23:45:09.160Z,101168.83
2018-03-20T23:47:36.600Z,101176.03
2018-03-20T23:50:04.011Z,101173.33
2018-03-20T23:52:31.434Z,101171.91
2018-03-20T23:54:58.833Z,101176.80
2018-03-20T23:57:26.299Z,101170.81
2018-03-20T23:59:53.795Z,101186.63
